Bevent, Wisconsin
Current Conditions -  °F | °C
As of 4:35 AM on Wednesday 26 Nov 2014 (Local Time) from KCWA Reporting Station
Overcast Overcast  
Wind Chill: -13°   Ceiling: 7000
Heat Index: -9°   Visibility: 7mi
Dew Point: -9°   Wind: 5mph
Humidity: 100%   Direction: 90°E
Pressure: 30.1"   Gusts: NA
Location:  44.8205°N, 89.392°W
Report Text: KCWA 261035Z AUTO 09004KT 7SM OVC070 M09/M09 A3010 RMK AO2
Loading
Personal Weather Stations






























Interactive Weather Map New forecast layout! Learn more

10-Day Weather Forecast

Advertisements
Track Severe Weather on mobile